sensor_id;sensor_type;location;lat;lon;timestamp;pressure;altitude;pressure_sealevel;temperature
34310;BMP280;61664;48.112;11.662;2022-08-21T00:00:22;95613.75;;;19.84
34310;BMP280;61664;48.112;11.662;2022-08-21T00:02:59;95625.00;;;19.88
34310;BMP280;61664;48.112;11.662;2022-08-21T00:05:37;95627.09;;;19.82
34310;BMP280;61664;48.112;11.662;2022-08-21T00:08:05;95616.84;;;19.75
34310;BMP280;61664;48.112;11.662;2022-08-21T00:10:33;95605.13;;;19.67
34310;BMP280;61664;48.112;11.662;2022-08-21T00:13:03;95618.88;;;19.69
34310;BMP280;61664;48.112;11.662;2022-08-21T00:15:32;95612.75;;;19.68
34310;BMP280;61664;48.112;11.662;2022-08-21T00:18:00;95604.25;;;19.59
34310;BMP280;61664;48.112;11.662;2022-08-21T00:20:27;95608.66;;;19.62
34310;BMP280;61664;48.112;11.662;2022-08-21T00:22:54;95615.09;;;19.59
34310;BMP280;61664;48.112;11.662;2022-08-21T00:25:23;95606.75;;;19.57
34310;BMP280;61664;48.112;11.662;2022-08-21T00:27:52;95612.63;;;19.61
34310;BMP280;61664;48.112;11.662;2022-08-21T00:30:22;95619.50;;;19.62
34310;BMP280;61664;48.112;11.662;2022-08-21T00:32:52;95622.72;;;19.60
34310;BMP280;61664;48.112;11.662;2022-08-21T00:35:26;95618.56;;;19.59
34310;BMP280;61664;48.112;11.662;2022-08-21T00:37:53;95612.25;;;19.51
34310;BMP280;61664;48.112;11.662;2022-08-21T00:40:28;95617.59;;;19.57
34310;BMP280;61664;48.112;11.662;2022-08-21T00:42:55;95614.00;;;19.48
34310;BMP280;61664;48.112;11.662;2022-08-21T00:45:23;95607.25;;;19.42
34310;BMP280;61664;48.112;11.662;2022-08-21T00:47:52;95620.38;;;19.51
34310;BMP280;61664;48.112;11.662;2022-08-21T00:50:23;95617.97;;;19.47
34310;BMP280;61664;48.112;11.662;2022-08-21T00:52:52;95613.16;;;19.40
34310;BMP280;61664;48.112;11.662;2022-08-21T00:55:20;95608.75;;;19.37
34310;BMP280;61664;48.112;11.662;2022-08-21T00:57:54;95608.53;;;19.35
34310;BMP280;61664;48.112;11.662;2022-08-21T01:00:29;95600.56;;;19.24
34310;BMP280;61664;48.112;11.662;2022-08-21T01:02:59;95610.13;;;19.25
34310;BMP280;61664;48.112;11.662;2022-08-21T01:05:26;95596.94;;;19.16
34310;BMP280;61664;48.112;11.662;2022-08-21T01:07:55;95604.28;;;19.21
34310;BMP280;61664;48.112;11.662;2022-08-21T01:10:24;95597.41;;;19.20
34310;BMP280;61664;48.112;11.662;2022-08-21T01:12:55;95596.22;;;19.16
34310;BMP280;61664;48.112;11.662;2022-08-21T01:15:29;95599.03;;;19.10
34310;BMP280;61664;48.112;11.662;2022-08-21T01:17:57;95592.44;;;19.05
34310;BMP280;61664;48.112;11.662;2022-08-21T01:20:25;95579.97;;;18.97
34310;BMP280;61664;48.112;11.662;2022-08-21T01:23:00;95585.41;;;18.97
34310;BMP280;61664;48.112;11.662;2022-08-21T01:25:27;95593.97;;;19.01
34310;BMP280;61664;48.112;11.662;2022-08-21T01:27:55;95594.44;;;18.99
34310;BMP280;61664;48.112;11.662;2022-08-21T01:30:26;95591.53;;;18.97
34310;BMP280;61664;48.112;11.662;2022-08-21T01:32:55;95585.75;;;18.88
34310;BMP280;61664;48.112;11.662;2022-08-21T01:35:22;95589.16;;;18.88
34310;BMP280;61664;48.112;11.662;2022-08-21T01:37:49;95575.28;;;18.79
34310;BMP280;61664;48.112;11.662;2022-08-21T01:40:18;95574.53;;;18.78
34310;BMP280;61664;48.112;11.662;2022-08-21T01:42:46;95596.34;;;18.86
34310;BMP280;61664;48.112;11.662;2022-08-21T01:45:15;95600.09;;;18.83
34310;BMP280;61664;48.112;11.662;2022-08-21T01:47:44;95590.25;;;18.80
34310;BMP280;61664;48.112;11.662;2022-08-21T01:50:17;95586.38;;;18.75
34310;BMP280;61664;48.112;11.662;2022-08-21T01:52:45;95581.25;;;18.71
34310;BMP280;61664;48.112;11.662;2022-08-21T01:55:14;95589.09;;;18.75
34310;BMP280;61664;48.112;11.662;2022-08-21T01:57:43;95581.25;;;18.71
34310;BMP280;61664;48.112;11.662;2022-08-21T02:00:16;95582.03;;;18.66
34310;BMP280;61664;48.112;11.662;2022-08-21T02:02:43;95577.16;;;18.65
34310;BMP280;61664;48.112;11.662;2022-08-21T02:05:12;95575.25;;;18.60
34310;BMP280;61664;48.112;11.662;2022-08-21T02:07:44;95571.06;;;18.59
34310;BMP280;61664;48.112;11.662;2022-08-21T02:10:16;95575.25;;;18.60
34310;BMP280;61664;48.112;11.662;2022-08-21T02:12:43;95560.56;;;18.50
34310;BMP280;61664;48.112;11.662;2022-08-21T02:15:10;95572.06;;;18.56
34310;BMP280;61664;48.112;11.662;2022-08-21T02:17:43;95567.19;;;18.54
34310;BMP280;61664;48.112;11.662;2022-08-21T02:20:18;95560.81;;;18.52
34310;BMP280;61664;48.112;11.662;2022-08-21T02:22:49;95557.03;;;18.36
34310;BMP280;61664;48.112;11.662;2022-08-21T02:25:18;95569.19;;;18.48
34310;BMP280;61664;48.112;11.662;2022-08-21T02:27:47;95572.41;;;18.47
34310;BMP280;61664;48.112;11.662;2022-08-21T02:30:30;95565.13;;;18.42
34310;BMP280;61664;48.112;11.662;2022-08-21T02:32:57;95568.75;;;18.44
34310;BMP280;61664;48.112;11.662;2022-08-21T02:35:25;95563.88;;;18.37
34310;BMP280;61664;48.112;11.662;2022-08-21T02:37:56;95563.88;;;18.37
34310;BMP280;61664;48.112;11.662;2022-08-21T02:40:30;95559.81;;;18.30
34310;BMP280;61664;48.112;11.662;2022-08-21T02:42:59;95562.72;;;18.32
34310;BMP280;61664;48.112;11.662;2022-08-21T02:45:27;95555.13;;;18.31
34310;BMP280;61664;48.112;11.662;2022-08-21T02:48:00;95568.88;;;18.33
34310;BMP280;61664;48.112;11.662;2022-08-21T02:50:44;95567.19;;;18.30
34310;BMP280;61664;48.112;11.662;2022-08-21T02:53:14;95565.94;;;18.31
34310;BMP280;61664;48.112;11.662;2022-08-21T02:55:49;95528.56;;;18.05
34310;BMP280;61664;48.112;11.662;2022-08-21T02:58:22;95553.00;;;18.18
34310;BMP280;61664;48.112;11.662;2022-08-21T03:00:51;95561.09;;;18.24
34310;BMP280;61664;48.112;11.662;2022-08-21T03:03:18;95558.16;;;18.22
34310;BMP280;61664;48.112;11.662;2022-08-21T03:05:45;95565.03;;;18.23
34310;BMP280;61664;48.112;11.662;2022-08-21T03:08:14;95565.03;;;18.23
34310;BMP280;61664;48.112;11.662;2022-08-21T03:10:50;95563.34;;;18.20
34310;BMP280;61664;48.112;11.662;2022-08-21T03:13:19;95556.50;;;18.13
34310;BMP280;61664;48.112;11.662;2022-08-21T03:15:50;95567.56;;;18.15
34310;BMP280;61664;48.112;11.662;2022-08-21T03:18:17;95564.84;;;18.15
34310;BMP280;61664;48.112;11.662;2022-08-21T03:20:45;95569.03;;;18.16
34310;BMP280;61664;48.112;11.662;2022-08-21T03:23:14;95571.72;;;18.16
34310;BMP280;61664;48.112;11.662;2022-08-21T03:25:45;95552.38;;;18.07
34310;BMP280;61664;48.112;11.662;2022-08-21T03:28:20;95553.63;;;18.06
34310;BMP280;61664;48.112;11.662;2022-08-21T03:30:50;95569.81;;;18.11
34310;BMP280;61664;48.112;11.662;2022-08-21T03:33:18;95557.81;;;18.07
34310;BMP280;61664;48.112;11.662;2022-08-21T03:35:55;95568.81;;;18.09
34310;BMP280;61664;48.112;11.662;2022-08-21T03:38:23;95550.75;;;17.98
34310;BMP280;61664;48.112;11.662;2022-08-21T03:40:53;95559.09;;;18.00
34310;BMP280;61664;48.112;11.662;2022-08-21T03:43:20;95566.69;;;18.02
34310;BMP280;61664;48.112;11.662;2022-08-21T03:45:48;95576.28;;;18.03
34310;BMP280;61664;48.112;11.662;2022-08-21T03:48:17;95575.53;;;18.02
34310;BMP280;61664;48.112;11.662;2022-08-21T03:50:44;95567.22;;;17.94
34310;BMP280;61664;48.112;11.662;2022-08-21T03:53:15;95575.31;;;18.00
34310;BMP280;61664;48.112;11.662;2022-08-21T03:55:45;95573.09;;;17.99
34310;BMP280;61664;48.112;11.662;2022-08-21T03:58:15;95573.44;;;17.89
34310;BMP280;61664;48.112;11.662;2022-08-21T04:00:49;95576.59;;;17.93
34310;BMP280;61664;48.112;11.662;2022-08-21T04:03:18;95580.53;;;17.92
34310;BMP280;61664;48.112;11.662;2022-08-21T04:05:46;95570.97;;;17.91
34310;BMP280;61664;48.112;11.662;2022-08-21T04:08:16;95586.38;;;17.96
34310;BMP280;61664;48.112;11.662;2022-08-21T04:10:48;95570.25;;;17.85
34310;BMP280;61664;48.112;11.662;2022-08-21T04:13:16;95574.41;;;17.86
34310;BMP280;61664;48.112;11.662;2022-08-21T04:15:43;95592.81;;;17.93
34310;BMP280;61664;48.112;11.662;2022-08-21T04:18:10;95577.13;;;17.86
34310;BMP280;61664;48.112;11.662;2022-08-21T04:20:39;95585.22;;;17.92
34310;BMP280;61664;48.112;11.662;2022-08-21T04:23:10;95591.13;;;17.90
34310;BMP280;61664;48.112;11.662;2022-08-21T04:25:49;95591.63;;;17.89
34310;BMP280;61664;48.112;11.662;2022-08-21T04:28:16;95581.84;;;17.80
34310;BMP280;61664;48.112;11.662;2022-08-21T04:30:44;95585.53;;;17.77
34310;BMP280;61664;48.112;11.662;2022-08-21T04:33:12;95596.84;;;17.81
34310;BMP280;61664;48.112;11.662;2022-08-21T04:35:39;95607.16;;;17.83
34310;BMP280;61664;48.112;11.662;2022-08-21T04:38:06;95597.88;;;17.73
34310;BMP280;61664;48.112;11.662;2022-08-21T04:40:33;95601.03;;;17.77
34310;BMP280;61664;48.112;11.662;2022-08-21T04:43:10;95603.22;;;17.84
34310;BMP280;61664;48.112;11.662;2022-08-21T04:45:44;95610.06;;;17.85
34310;BMP280;61664;48.112;11.662;2022-08-21T04:48:13;95612.25;;;17.86
34310;BMP280;61664;48.112;11.662;2022-08-21T04:54:06;95608.38;;;17.82
34310;BMP280;61664;48.112;11.662;2022-08-21T04:56:48;95613.25;;;17.89
34310;BMP280;61664;48.112;11.662;2022-08-21T04:59:24;95607.09;;;17.88
34310;BMP280;61664;48.112;11.662;2022-08-21T05:01:52;95612.75;;;17.90
34310;BMP280;61664;48.112;11.662;2022-08-21T05:04:27;95615.69;;;17.92
34310;BMP280;61664;48.112;11.662;2022-08-21T05:07:00;95613.19;;;17.94
34310;BMP280;61664;48.112;11.662;2022-08-21T05:09:29;95602.44;;;17.89
34310;BMP280;61664;48.112;11.662;2022-08-21T05:11:56;95610.22;;;17.98
34310;BMP280;61664;48.112;11.662;2022-08-21T05:14:24;95608.19;;;18.04
34310;BMP280;61664;48.112;11.662;2022-08-21T05:16:53;95619.22;;;18.12
34310;BMP280;61664;48.112;11.662;2022-08-21T05:19:20;95599.81;;;18.08
34310;BMP280;61664;48.112;11.662;2022-08-21T05:21:47;95592.19;;;18.12
34310;BMP280;61664;48.112;11.662;2022-08-21T05:24:15;95605.38;;;18.21
34310;BMP280;61664;48.112;11.662;2022-08-21T05:26:42;95606.56;;;18.25
34310;BMP280;61664;48.112;11.662;2022-08-21T05:29:13;95605.00;;;18.36
34310;BMP280;61664;48.112;11.662;2022-08-21T05:31:43;95614.69;;;18.50
34310;BMP280;61664;48.112;11.662;2022-08-21T05:34:12;95613.63;;;18.58
34310;BMP280;61664;48.112;11.662;2022-08-21T05:36:41;95626.31;;;18.69
34310;BMP280;61664;48.112;11.662;2022-08-21T05:39:08;95612.28;;;18.70
34310;BMP280;61664;48.112;11.662;2022-08-21T05:41:35;95607.53;;;18.77
34310;BMP280;61664;48.112;11.662;2022-08-21T05:44:02;95628.53;;;18.89
34310;BMP280;61664;48.112;11.662;2022-08-21T05:46:35;95625.03;;;18.94
34310;BMP280;61664;48.112;11.662;2022-08-21T05:49:03;95629.19;;;19.01
34310;BMP280;61664;48.112;11.662;2022-08-21T05:51:30;95636.50;;;19.06
34310;BMP280;61664;48.112;11.662;2022-08-21T05:53:57;95637.69;;;19.11
34310;BMP280;61664;48.112;11.662;2022-08-21T05:56:24;95621.69;;;19.07
34310;BMP280;61664;48.112;11.662;2022-08-21T05:58:51;95635.31;;;19.20
34310;BMP280;61664;48.112;11.662;2022-08-21T06:01:18;95618.41;;;19.14
34310;BMP280;61664;48.112;11.662;2022-08-21T06:03:45;95644.34;;;19.28
34310;BMP280;61664;48.112;11.662;2022-08-21T06:06:12;95639.38;;;19.32
34310;BMP280;61664;48.112;11.662;2022-08-21T06:08:39;95638.56;;;19.37
34310;BMP280;61664;48.112;11.662;2022-08-21T06:11:07;95645.38;;;19.44
34310;BMP280;61664;48.112;11.662;2022-08-21T06:13:36;95645.59;;;19.46
34310;BMP280;61664;48.112;11.662;2022-08-21T06:16:08;95641.41;;;19.45
34310;BMP280;61664;48.112;11.662;2022-08-21T06:18:37;95616.59;;;19.41
34310;BMP280;61664;48.112;11.662;2022-08-21T06:21:05;95633.06;;;19.62
34310;BMP280;61664;48.112;11.662;2022-08-21T06:23:33;95634.72;;;19.65
34310;BMP280;61664;48.112;11.662;2022-08-21T06:26:06;95642.06;;;19.70
34310;BMP280;61664;48.112;11.662;2022-08-21T06:28:35;95633.41;;;19.71
34310;BMP280;61664;48.112;11.662;2022-08-21T06:31:21;95648.06;;;19.81
34310;BMP280;61664;48.112;11.662;2022-08-21T06:33:50;95649.66;;;19.90
34310;BMP280;61664;48.112;11.662;2022-08-21T06:36:17;95640.47;;;19.93
34310;BMP280;61664;48.112;11.662;2022-08-21T06:38:45;95637.38;;;20.02
34310;BMP280;61664;48.112;11.662;2022-08-21T06:41:19;95643.69;;;20.10
34310;BMP280;61664;48.112;11.662;2022-08-21T06:43:53;95634.47;;;20.13
34310;BMP280;61664;48.112;11.662;2022-08-21T06:46:21;95643.03;;;20.17
34310;BMP280;61664;48.112;11.662;2022-08-21T06:48:48;95624.28;;;20.19
34310;BMP280;61664;48.112;11.662;2022-08-21T06:51:15;95634.63;;;20.34
34310;BMP280;61664;48.112;11.662;2022-08-21T06:53:43;95627.00;;;20.46
34310;BMP280;61664;48.112;11.662;2022-08-21T06:56:10;95632.75;;;20.55
34310;BMP280;61664;48.112;11.662;2022-08-21T06:58:37;95618.47;;;20.55
34310;BMP280;61664;48.112;11.662;2022-08-21T07:01:05;95613.88;;;20.63
34310;BMP280;61664;48.112;11.662;2022-08-21T07:03:38;95626.19;;;20.77
34310;BMP280;61664;48.112;11.662;2022-08-21T07:06:08;95616.06;;;20.78
34310;BMP280;61664;48.112;11.662;2022-08-21T07:08:37;95623.78;;;20.87
34310;BMP280;61664;48.112;11.662;2022-08-21T07:11:12;95614.91;;;20.86
34310;BMP280;61664;48.112;11.662;2022-08-21T07:13:41;95616.38;;;20.87
34310;BMP280;61664;48.112;11.662;2022-08-21T07:16:08;95612.06;;;20.92
34310;BMP280;61664;48.112;11.662;2022-08-21T07:18:35;95606.34;;;20.95
34310;BMP280;61664;48.112;11.662;2022-08-21T07:21:05;95609.97;;;20.98
34310;BMP280;61664;48.112;11.662;2022-08-21T07:23:38;95614.38;;;21.01
34310;BMP280;61664;48.112;11.662;2022-08-21T07:26:08;95614.25;;;21.07
34310;BMP280;61664;48.112;11.662;2022-08-21T07:28:35;95615.41;;;21.11
34310;BMP280;61664;48.112;11.662;2022-08-21T07:31:04;95614.56;;;21.16
34310;BMP280;61664;48.112;11.662;2022-08-21T07:33:34;95615.16;;;21.22
34310;BMP280;61664;48.112;11.662;2022-08-21T07:36:01;95611.72;;;21.22
34310;BMP280;61664;48.112;11.662;2022-08-21T07:38:28;95616.59;;;21.36
34310;BMP280;61664;48.112;11.662;2022-08-21T07:40:57;95615.22;;;21.43
34310;BMP280;61664;48.112;11.662;2022-08-21T07:43:27;95616.06;;;21.59
34310;BMP280;61664;48.112;11.662;2022-08-21T07:45:54;95614.16;;;21.67
34310;BMP280;61664;48.112;11.662;2022-08-21T07:48:22;95615.88;;;21.77
34310;BMP280;61664;48.112;11.662;2022-08-21T07:50:50;95612.50;;;21.84
34310;BMP280;61664;48.112;11.662;2022-08-21T07:53:17;95604.88;;;21.83
34310;BMP280;61664;48.112;11.662;2022-08-21T07:55:44;95605.69;;;21.91
34310;BMP280;61664;48.112;11.662;2022-08-21T07:58:11;95610.72;;;22.08
34310;BMP280;61664;48.112;11.662;2022-08-21T08:00:40;95601.00;;;22.20
34310;BMP280;61664;48.112;11.662;2022-08-21T08:03:07;95600.72;;;22.31
34310;BMP280;61664;48.112;11.662;2022-08-21T08:05:36;95599.75;;;22.49
34310;BMP280;61664;48.112;11.662;2022-08-21T08:08:04;95595.06;;;22.57
34310;BMP280;61664;48.112;11.662;2022-08-21T08:10:31;95594.22;;;22.78
34310;BMP280;61664;48.112;11.662;2022-08-21T08:12:59;95590.66;;;22.90
34310;BMP280;61664;48.112;11.662;2022-08-21T08:15:28;95603.50;;;23.33
34310;BMP280;61664;48.112;11.662;2022-08-21T08:17:57;95586.63;;;23.96
34310;BMP280;61664;48.112;11.662;2022-08-21T08:20:25;95584.56;;;24.89
34310;BMP280;61664;48.112;11.662;2022-08-21T08:22:56;95595.16;;;25.67
34310;BMP280;61664;48.112;11.662;2022-08-21T08:25:25;95598.88;;;26.21
34310;BMP280;61664;48.112;11.662;2022-08-21T08:28:04;95581.19;;;26.66
34310;BMP280;61664;48.112;11.662;2022-08-21T08:30:45;95581.84;;;27.38
34310;BMP280;61664;48.112;11.662;2022-08-21T08:33:14;95590.22;;;28.24
34310;BMP280;61664;48.112;11.662;2022-08-21T08:35:45;95587.78;;;28.97
34310;BMP280;61664;48.112;11.662;2022-08-21T08:38:15;95585.41;;;29.65
34310;BMP280;61664;48.112;11.662;2022-08-21T08:41:06;95594.72;;;30.56
34310;BMP280;61664;48.112;11.662;2022-08-21T08:43:35;95589.84;;;31.25
34310;BMP280;61664;48.112;11.662;2022-08-21T08:46:20;95585.09;;;31.74
34310;BMP280;61664;48.112;11.662;2022-08-21T08:49:13;95579.50;;;32.22
34310;BMP280;61664;48.112;11.662;2022-08-21T08:51:51;95586.28;;;32.72
34310;BMP280;61664;48.112;11.662;2022-08-21T08:57:23;95579.44;;;33.41
34310;BMP280;61664;48.112;11.662;2022-08-21T09:00:01;95593.34;;;33.70
34310;BMP280;61664;48.112;11.662;2022-08-21T09:02:29;95588.06;;;33.90
34310;BMP280;61664;48.112;11.662;2022-08-21T09:04:59;95596.59;;;34.10
34310;BMP280;61664;48.112;11.662;2022-08-21T09:07:40;95596.91;;;34.16
34310;BMP280;61664;48.112;11.662;2022-08-21T09:10:22;95605.84;;;34.14
34310;BMP280;61664;48.112;11.662;2022-08-21T09:13:17;95594.78;;;34.30
34310;BMP280;61664;48.112;11.662;2022-08-21T09:16:01;95589.53;;;34.83
34310;BMP280;61664;48.112;11.662;2022-08-21T09:21:43;95592.06;;;35.77
34310;BMP280;61664;48.112;11.662;2022-08-21T09:27:09;95583.16;;;36.53
34310;BMP280;61664;48.112;11.662;2022-08-21T09:29:45;95573.09;;;36.83
34310;BMP280;61664;48.112;11.662;2022-08-21T09:32:29;95575.25;;;36.28
34310;BMP280;61664;48.112;11.662;2022-08-21T09:35:17;95587.44;;;36.01
34310;BMP280;61664;48.112;11.662;2022-08-21T09:37:59;95588.44;;;36.45
34310;BMP280;61664;48.112;11.662;2022-08-21T09:40:57;95581.34;;;37.01
34310;BMP280;61664;48.112;11.662;2022-08-21T09:43:25;95574.66;;;37.51
34310;BMP280;61664;48.112;11.662;2022-08-21T09:46:23;95575.00;;;36.79
34310;BMP280;61664;48.112;11.662;2022-08-21T09:48:56;95593.41;;;35.58
34310;BMP280;61664;48.112;11.662;2022-08-21T09:51:31;95583.69;;;34.30
34310;BMP280;61664;48.112;11.662;2022-08-21T09:54:14;95582.72;;;33.94
34310;BMP280;61664;48.112;11.662;2022-08-21T09:57:23;95581.28;;;33.93
34310;BMP280;61664;48.112;11.662;2022-08-21T10:02:49;95576.16;;;33.31
34310;BMP280;61664;48.112;11.662;2022-08-21T10:05:26;95576.31;;;32.53
34310;BMP280;61664;48.112;11.662;2022-08-21T10:07:55;95566.44;;;31.86
34310;BMP280;61664;48.112;11.662;2022-08-21T10:10:36;95574.88;;;31.16
34310;BMP280;61664;48.112;11.662;2022-08-21T10:13:14;95572.66;;;30.68
34310;BMP280;61664;48.112;11.662;2022-08-21T10:21:33;95569.63;;;33.81
34310;BMP280;61664;48.112;11.662;2022-08-21T10:27:59;95569.41;;;32.93
34310;BMP280;61664;48.112;11.662;2022-08-21T10:30:04;95560.69;;;32.07
34310;BMP280;61664;48.112;11.662;2022-08-21T10:32:43;95555.75;;;31.80
34310;BMP280;61664;48.112;11.662;2022-08-21T10:47:41;95558.75;;;33.28
34310;BMP280;61664;48.112;11.662;2022-08-21T10:50:39;95542.72;;;32.59
34310;BMP280;61664;48.112;11.662;2022-08-21T10:56:19;95553.59;;;31.79
34310;BMP280;61664;48.112;11.662;2022-08-21T11:01:48;95559.00;;;31.17
34310;BMP280;61664;48.112;11.662;2022-08-21T11:05:14;95553.72;;;30.74
34310;BMP280;61664;48.112;11.662;2022-08-21T11:07:43;95557.69;;;30.94
34310;BMP280;61664;48.112;11.662;2022-08-21T11:10:47;95538.69;;;33.14
34310;BMP280;61664;48.112;11.662;2022-08-21T11:13:49;95537.47;;;34.99
34310;BMP280;61664;48.112;11.662;2022-08-21T11:16:48;95538.59;;;35.96
34310;BMP280;61664;48.112;11.662;2022-08-21T11:19:45;95540.94;;;37.00
34310;BMP280;61664;48.112;11.662;2022-08-21T11:22:23;95539.44;;;37.40
34310;BMP280;61664;48.112;11.662;2022-08-21T11:25:15;95538.63;;;37.14
34310;BMP280;61664;48.112;11.662;2022-08-21T11:28:00;95532.06;;;36.44
34310;BMP280;61664;48.112;11.662;2022-08-21T11:31:05;95524.25;;;35.48
34310;BMP280;61664;48.112;11.662;2022-08-21T11:34:12;95534.59;;;34.48
34310;BMP280;61664;48.112;11.662;2022-08-21T11:36:59;95526.38;;;33.89
34310;BMP280;61664;48.112;11.662;2022-08-21T11:45:49;95531.69;;;32.33
34310;BMP280;61664;48.112;11.662;2022-08-21T11:51:41;95527.94;;;31.76
34310;BMP280;61664;48.112;11.662;2022-08-21T11:57:13;95514.63;;;31.01
34310;BMP280;61664;48.112;11.662;2022-08-21T12:00:11;95513.44;;;30.69
34310;BMP280;61664;48.112;11.662;2022-08-21T12:02:50;95520.34;;;30.35
34310;BMP280;61664;48.112;11.662;2022-08-21T12:05:40;95517.16;;;30.06
34310;BMP280;61664;48.112;11.662;2022-08-21T12:08:14;95511.03;;;29.75
34310;BMP280;61664;48.112;11.662;2022-08-21T12:10:58;95509.41;;;29.60
34310;BMP280;61664;48.112;11.662;2022-08-21T12:13:31;95498.44;;;29.50
34310;BMP280;61664;48.112;11.662;2022-08-21T12:16:15;95508.66;;;29.38
34310;BMP280;61664;48.112;11.662;2022-08-21T12:18:43;95502.50;;;29.07
34310;BMP280;61664;48.112;11.662;2022-08-21T12:21:26;95500.09;;;28.92
34310;BMP280;61664;48.112;11.662;2022-08-21T12:24:04;95504.44;;;28.85
34310;BMP280;61664;48.112;11.662;2022-08-21T12:26:53;95504.44;;;28.85
34310;BMP280;61664;48.112;11.662;2022-08-21T12:34:47;95488.22;;;29.62
34310;BMP280;61664;48.112;11.662;2022-08-21T12:37:43;95491.41;;;29.80
34310;BMP280;61664;48.112;11.662;2022-08-21T12:40:23;95484.06;;;29.73
34310;BMP280;61664;48.112;11.662;2022-08-21T12:42:55;95491.94;;;29.67
34310;BMP280;61664;48.112;11.662;2022-08-21T12:45:42;95493.47;;;29.58
34310;BMP280;61664;48.112;11.662;2022-08-21T12:48:18;95492.28;;;29.61
34310;BMP280;61664;48.112;11.662;2022-08-21T12:50:58;95485.88;;;29.69
34310;BMP280;61664;48.112;11.662;2022-08-21T12:53:35;95469.34;;;29.69
34310;BMP280;61664;48.112;11.662;2022-08-21T12:56:12;95471.41;;;29.80
34310;BMP280;61664;48.112;11.662;2022-08-21T12:58:45;95471.88;;;30.09
34310;BMP280;61664;48.112;11.662;2022-08-21T13:01:35;95471.69;;;30.51
34310;BMP280;61664;48.112;11.662;2022-08-21T13:04:13;95470.63;;;30.68
34310;BMP280;61664;48.112;11.662;2022-08-21T13:06:45;95475.16;;;30.75
34310;BMP280;61664;48.112;11.662;2022-08-21T13:09:18;95464.97;;;30.78
34310;BMP280;61664;48.112;11.662;2022-08-21T13:11:48;95451.34;;;30.80
34310;BMP280;61664;48.112;11.662;2022-08-21T13:16:59;95455.25;;;31.00
34310;BMP280;61664;48.112;11.662;2022-08-21T13:19:27;95462.09;;;30.99
34310;BMP280;61664;48.112;11.662;2022-08-21T13:21:56;95457.06;;;30.95
34310;BMP280;61664;48.112;11.662;2022-08-21T13:27:28;95453.72;;;31.34
34310;BMP280;61664;48.112;11.662;2022-08-21T13:30:19;95452.66;;;31.89
34310;BMP280;61664;48.112;11.662;2022-08-21T13:32:59;95456.75;;;32.27
34310;BMP280;61664;48.112;11.662;2022-08-21T13:35:50;95451.72;;;32.24
34310;BMP280;61664;48.112;11.662;2022-08-21T13:38:21;95449.94;;;32.03
34310;BMP280;61664;48.112;11.662;2022-08-21T13:40:58;95440.22;;;31.77
34310;BMP280;61664;48.112;11.662;2022-08-21T13:43:32;95442.22;;;31.63
34310;BMP280;61664;48.112;11.662;2022-08-21T13:46:02;95438.28;;;31.54
34310;BMP280;61664;48.112;11.662;2022-08-21T13:48:35;95434.38;;;31.45
34310;BMP280;61664;48.112;11.662;2022-08-21T13:51:03;95428.59;;;31.41
34310;BMP280;61664;48.112;11.662;2022-08-21T13:53:34;95439.91;;;31.34
34310;BMP280;61664;48.112;11.662;2022-08-21T13:56:03;95439.03;;;31.18
34310;BMP280;61664;48.112;11.662;2022-08-21T13:58:44;95442.25;;;31.14
34310;BMP280;61664;48.112;11.662;2022-08-21T14:01:31;95437.03;;;31.43
34310;BMP280;61664;48.112;11.662;2022-08-21T14:04:07;95429.03;;;31.86
34310;BMP280;61664;48.112;11.662;2022-08-21T14:06:41;95432.41;;;32.37
34310;BMP280;61664;48.112;11.662;2022-08-21T14:09:26;95437.31;;;32.52
34310;BMP280;61664;48.112;11.662;2022-08-21T14:11:58;95423.28;;;32.35
34310;BMP280;61664;48.112;11.662;2022-08-21T14:14:32;95435.47;;;32.43
34310;BMP280;61664;48.112;11.662;2022-08-21T14:17:05;95421.78;;;33.16
34310;BMP280;61664;48.112;11.662;2022-08-21T14:19:52;95435.34;;;35.13
34310;BMP280;61664;48.112;11.662;2022-08-21T14:25:05;95441.22;;;38.92
34310;BMP280;61664;48.112;11.662;2022-08-21T14:27:37;95435.63;;;40.67
34310;BMP280;61664;48.112;11.662;2022-08-21T14:32:54;95435.69;;;43.55
34310;BMP280;61664;48.112;11.662;2022-08-21T14:35:22;95431.66;;;44.57
34310;BMP280;61664;48.112;11.662;2022-08-21T14:37:51;95430.66;;;45.57
34310;BMP280;61664;48.112;11.662;2022-08-21T14:40:21;95429.47;;;46.27
34310;BMP280;61664;48.112;11.662;2022-08-21T14:42:49;95433.72;;;46.28
34310;BMP280;61664;48.112;11.662;2022-08-21T14:45:29;95425.00;;;45.61
34310;BMP280;61664;48.112;11.662;2022-08-21T14:47:58;95420.72;;;45.62
34310;BMP280;61664;48.112;11.662;2022-08-21T14:50:25;95422.63;;;45.98
34310;BMP280;61664;48.112;11.662;2022-08-21T14:52:54;95421.47;;;46.52
34310;BMP280;61664;48.112;11.662;2022-08-21T14:55:21;95419.28;;;46.60
34310;BMP280;61664;48.112;11.662;2022-08-21T14:57:52;95422.97;;;45.42
34310;BMP280;61664;48.112;11.662;2022-08-21T15:00:24;95428.81;;;43.99
34310;BMP280;61664;48.112;11.662;2022-08-21T15:03:02;95422.41;;;42.47
34310;BMP280;61664;48.112;11.662;2022-08-21T15:05:28;95435.72;;;41.75
34310;BMP280;61664;48.112;11.662;2022-08-21T15:08:00;95427.00;;;42.13
34310;BMP280;61664;48.112;11.662;2022-08-21T15:10:30;95436.56;;;42.59
34310;BMP280;61664;48.112;11.662;2022-08-21T15:12:57;95411.38;;;41.89
34310;BMP280;61664;48.112;11.662;2022-08-21T15:15:24;95417.66;;;40.82
34310;BMP280;61664;48.112;11.662;2022-08-21T15:17:51;95425.38;;;40.40
34310;BMP280;61664;48.112;11.662;2022-08-21T15:20:18;95393.13;;;40.81
34310;BMP280;61664;48.112;11.662;2022-08-21T15:22:45;95402.88;;;41.27
34310;BMP280;61664;48.112;11.662;2022-08-21T15:25:14;95406.63;;;41.44
34310;BMP280;61664;48.112;11.662;2022-08-21T15:27:41;95416.16;;;41.81
34310;BMP280;61664;48.112;11.662;2022-08-21T15:30:09;95413.81;;;42.27
34310;BMP280;61664;48.112;11.662;2022-08-21T15:32:36;95430.28;;;42.67
34310;BMP280;61664;48.112;11.662;2022-08-21T15:35:05;95422.19;;;43.17
34310;BMP280;61664;48.112;11.662;2022-08-21T15:37:32;95407.63;;;43.71
34310;BMP280;61664;48.112;11.662;2022-08-21T15:39:59;95416.84;;;44.30